Shiro, Texas
Current Conditions -  °F | °C
As of 7:53 AM on Friday 31 Oct 2014 (Local Time) from KUTS Reporting Station
Clear Clear  
Wind Chill: 12°   Ceiling: Unl
Heat Index: 12°   Visibility: 10mi
Dew Point:   Wind: 3mph
Humidity: 86%   Direction: 320°NW
Pressure: 30.18"   Gusts: NA
Location:  30.61°N, 95.89°W
Report Text: KUTS 311253Z AUTO 32003KT 10SM CLR 12/09 A3018 RMK AO2 SLP217 T01170094
Loading
Personal Weather Stations






























Interactive Weather Map
Tropical Storm Tracking
New forecast layout! Learn more

10-Day Weather Forecast

Advertisements
Track Severe Weather on mobile